createdAt,value
2023-03-04T00:01:01.241Z,42.60
2023-03-04T00:03:29.835Z,42.50
2023-03-04T00:05:58.134Z,42.40
2023-03-04T00:08:27.866Z,42.50
2023-03-04T00:10:56.214Z,42.40
2023-03-04T00:13:25.203Z,42.40
2023-03-04T00:15:53.813Z,42.40
2023-03-04T00:18:22.256Z,42.40
2023-03-04T00:20:50.908Z,42.30
2023-03-04T00:23:19.461Z,42.40
2023-03-04T00:25:49.086Z,42.40
2023-03-04T00:28:17.469Z,42.50
2023-03-04T00:30:45.946Z,42.60
2023-03-04T00:33:14.323Z,42.70
2023-03-04T00:35:42.758Z,42.90
2023-03-04T00:38:11.516Z,42.90
2023-03-04T00:40:39.932Z,42.90
2023-03-04T00:43:09.692Z,42.90
2023-03-04T00:45:38.116Z,43.10
2023-03-04T00:48:06.702Z,43.10
2023-03-04T00:50:36.317Z,43.10
2023-03-04T00:53:04.816Z,43.10
2023-03-04T00:55:33.295Z,43.20
2023-03-04T00:58:01.717Z,43.20
2023-03-04T01:00:31.687Z,43.30
2023-03-04T01:03:00.050Z,43.40
2023-03-04T01:05:28.624Z,43.50
2023-03-04T01:07:57.003Z,43.40
2023-03-04T01:10:25.478Z,43.60
2023-03-04T01:12:54.517Z,43.70
2023-03-04T01:15:22.853Z,43.80
2023-03-04T01:17:52.737Z,44.00
2023-03-04T01:20:21.271Z,44.40
2023-03-04T01:22:49.650Z,44.40
2023-03-04T01:25:18.269Z,44.50
2023-03-04T01:27:46.748Z,44.40
2023-03-04T01:30:15.504Z,44.40
2023-03-04T01:32:43.906Z,44.40
2023-03-04T01:35:13.637Z,44.40
2023-03-04T01:37:42.171Z,44.50
2023-03-04T01:40:11.568Z,45.10
2023-03-04T01:42:40.120Z,44.40
2023-03-04T01:45:13.009Z,44.40
2023-03-04T01:47:43.758Z,44.30
2023-03-04T01:50:21.914Z,44.40
2023-03-04T01:52:50.397Z,44.30
2023-03-04T01:55:20.852Z,44.40
2023-03-04T01:57:51.130Z,44.50
2023-03-04T02:00:26.914Z,44.50
2023-03-04T02:02:58.884Z,44.60
2023-03-04T02:05:29.653Z,44.60
2023-03-04T02:07:59.686Z,44.50
2023-03-04T02:10:28.312Z,44.60
2023-03-04T02:12:57.234Z,44.60
2023-03-04T02:15:26.325Z,44.60
2023-03-04T02:17:54.791Z,44.70
2023-03-04T02:20:43.798Z,44.70
2023-03-04T02:23:18.872Z,44.70
2023-03-04T02:25:51.674Z,45.00
2023-03-04T02:28:21.779Z,45.00
2023-03-04T02:30:50.157Z,45.10
2023-03-04T02:33:19.706Z,45.50
2023-03-04T02:35:48.611Z,45.50
2023-03-04T02:38:17.136Z,45.80
2023-03-04T02:40:50.108Z,45.90
2023-03-04T02:43:18.747Z,46.20
2023-03-04T02:45:51.514Z,46.60
2023-03-04T02:48:21.591Z,46.60
2023-03-04T02:50:53.167Z,46.60
2023-03-04T02:53:23.047Z,46.70
2023-03-04T02:55:52.105Z,46.90
2023-03-04T02:58:23.620Z,46.90
2023-03-04T03:00:53.448Z,46.90
2023-03-04T03:03:21.826Z,47.00
2023-03-04T03:05:50.313Z,47.20
2023-03-04T03:08:19.034Z,47.10
2023-03-04T03:10:47.628Z,47.20
2023-03-04T03:13:16.013Z,47.10
2023-03-04T03:15:44.890Z,47.20
2023-03-04T03:18:15.437Z,47.40
2023-03-04T03:20:44.045Z,47.40
2023-03-04T03:23:12.476Z,47.40
2023-03-04T03:25:40.867Z,47.40
2023-03-04T03:28:09.236Z,47.40
2023-03-04T03:30:39.349Z,47.30
2023-03-04T03:33:08.114Z,47.30
2023-03-04T03:35:39.055Z,47.30
2023-03-04T03:38:07.621Z,47.30
2023-03-04T03:40:36.113Z,47.50
2023-03-04T03:43:04.471Z,47.70
2023-03-04T03:45:33.235Z,47.60
2023-03-04T03:48:01.660Z,47.90
2023-03-04T03:50:30.111Z,48.10
2023-03-04T03:53:00.090Z,48.50
2023-03-04T03:55:28.556Z,48.40
2023-03-04T03:57:56.921Z,48.60
2023-03-04T04:00:25.607Z,48.70
2023-03-04T04:02:56.054Z,48.80
2023-03-04T04:05:24.424Z,49.00
2023-03-04T04:07:54.170Z,49.00
2023-03-04T04:10:23.964Z,49.00
2023-03-04T04:12:52.508Z,48.90
2023-03-04T04:15:21.092Z,48.80
2023-03-04T04:17:49.404Z,48.70
2023-03-04T04:20:18.206Z,48.80
2023-03-04T04:22:46.505Z,48.90
2023-03-04T04:25:14.936Z,49.00
2023-03-04T04:27:44.692Z,48.90
2023-03-04T04:30:14.169Z,48.90
2023-03-04T04:32:42.546Z,49.00
2023-03-04T04:35:11.208Z,49.10
2023-03-04T04:37:39.742Z,49.30
2023-03-04T04:40:09.158Z,49.30
2023-03-04T04:42:37.601Z,49.30
2023-03-04T04:45:08.484Z,49.50
2023-03-04T04:47:36.910Z,49.50
2023-03-04T04:50:06.256Z,49.60
2023-03-04T04:52:34.638Z,49.70
2023-03-04T04:55:03.007Z,49.60
2023-03-04T04:57:31.377Z,49.70
2023-03-04T04:59:59.762Z,49.80
2023-03-04T05:02:29.638Z,49.90
2023-03-04T05:04:58.051Z,49.90
2023-03-04T05:07:26.443Z,49.80
2023-03-04T05:09:54.685Z,49.80
2023-03-04T05:12:23.045Z,50.00
2023-03-04T05:14:51.391Z,50.30
2023-03-04T05:17:19.739Z,50.30
2023-03-04T05:19:49.497Z,50.40
2023-03-04T05:22:17.912Z,50.60
2023-03-04T05:24:46.328Z,50.80
2023-03-04T05:27:14.716Z,50.90
2023-03-04T05:29:44.917Z,51.00
2023-03-04T05:32:13.516Z,51.00
2023-03-04T05:34:42.070Z,51.00
2023-03-04T05:37:11.714Z,51.20
2023-03-04T05:39:40.157Z,51.30
2023-03-04T05:42:08.477Z,51.60
2023-03-04T05:44:36.907Z,51.90
2023-03-04T05:47:05.178Z,52.00
2023-03-04T05:49:33.519Z,52.10
2023-03-04T05:52:01.927Z,52.20
2023-03-04T05:54:31.641Z,52.30
2023-03-04T05:57:00.157Z,52.50
2023-03-04T05:59:28.427Z,52.70
2023-03-04T06:01:56.804Z,52.90
2023-03-04T06:04:25.251Z,52.90
2023-03-04T06:06:53.532Z,52.90
2023-03-04T06:09:22.157Z,52.90
2023-03-04T06:11:51.717Z,52.70
2023-03-04T06:14:20.223Z,52.40
2023-03-04T06:16:48.530Z,52.00
2023-03-04T06:19:16.842Z,51.50
2023-03-04T06:21:45.229Z,50.90
2023-03-04T06:24:13.729Z,50.30
2023-03-04T06:26:42.138Z,49.70
2023-03-04T06:29:12.049Z,49.10
2023-03-04T06:31:41.950Z,48.60
2023-03-04T06:34:10.636Z,48.60
2023-03-04T06:36:39.142Z,48.60
2023-03-04T06:39:08.603Z,49.20
2023-03-04T06:41:37.327Z,49.90
2023-03-04T06:44:06.101Z,50.40
2023-03-04T06:46:37.286Z,50.80
2023-03-04T06:49:05.715Z,50.70
2023-03-04T06:51:34.067Z,50.30
2023-03-04T06:54:02.419Z,49.90
2023-03-04T06:56:31.025Z,49.20
2023-03-04T06:58:59.344Z,48.50
2023-03-04T07:01:29.837Z,46.80
2023-03-04T07:03:59.814Z,46.10
2023-03-04T07:06:29.737Z,45.10
2023-03-04T07:08:59.085Z,44.60
2023-03-04T07:11:27.711Z,44.10
2023-03-04T07:13:56.152Z,43.30
2023-03-04T07:16:25.042Z,42.70
2023-03-04T07:18:53.555Z,42.10
2023-03-04T07:21:23.230Z,41.30
2023-03-04T07:23:51.723Z,40.50
2023-03-04T07:26:20.478Z,39.70
2023-03-04T07:28:49.291Z,39.30
2023-03-04T07:31:24.145Z,38.90
2023-03-04T07:33:53.005Z,38.60
2023-03-04T07:36:22.798Z,38.00
2023-03-04T07:38:54.783Z,37.70
2023-03-04T07:41:24.904Z,36.40
2023-03-04T07:43:53.444Z,35.70
2023-03-04T07:46:21.873Z,35.10
2023-03-04T07:48:50.299Z,34.90
2023-03-04T07:51:20.743Z,34.70
2023-03-04T07:53:52.080Z,34.10
2023-03-04T07:56:22.585Z,33.40
2023-03-04T07:58:53.714Z,32.80
2023-03-04T08:01:24.850Z,32.50
2023-03-04T08:03:53.725Z,31.90
2023-03-04T08:06:23.438Z,31.30
2023-03-04T08:08:58.256Z,31.00
2023-03-04T08:11:26.939Z,30.70
2023-03-04T08:13:55.427Z,30.70
2023-03-04T08:16:25.130Z,30.40
2023-03-04T08:18:56.312Z,30.40
2023-03-04T08:21:27.435Z,30.50
2023-03-04T08:23:59.466Z,30.20
2023-03-04T08:26:30.084Z,30.00
2023-03-04T08:28:59.198Z,29.80
2023-03-04T08:31:27.678Z,29.80
2023-03-04T08:33:56.657Z,29.60
2023-03-04T08:36:25.066Z,29.10
2023-03-04T08:38:53.376Z,28.60
2023-03-04T08:41:23.481Z,28.20
2023-03-04T08:43:51.914Z,28.00
2023-03-04T08:46:20.428Z,28.10
2023-03-04T08:48:48.887Z,28.20
2023-03-04T08:51:18.399Z,28.20
2023-03-04T08:53:47.085Z,27.90
2023-03-04T08:56:17.034Z,27.80
2023-03-04T08:58:46.635Z,27.90
2023-03-04T09:01:16.864Z,27.60
2023-03-04T09:03:45.643Z,27.60
2023-03-04T09:06:16.762Z,27.20
2023-03-04T09:08:45.678Z,27.00
2023-03-04T09:11:14.986Z,27.10
2023-03-04T09:13:43.605Z,27.10
2023-03-04T09:16:14.781Z,27.00
2023-03-04T09:18:43.534Z,26.80
2023-03-04T09:21:11.967Z,26.60
2023-03-04T09:23:40.985Z,26.50
2023-03-04T09:26:17.660Z,26.20
2023-03-04T09:28:46.117Z,25.80
2023-03-04T09:31:16.475Z,25.60
2023-03-04T09:33:44.963Z,25.40
2023-03-04T09:36:15.390Z,25.30
2023-03-04T09:38:44.385Z,25.40
2023-03-04T09:41:18.497Z,25.30
2023-03-04T09:43:47.850Z,25.30
2023-03-04T09:46:21.488Z,25.40
2023-03-04T09:48:52.546Z,25.20
2023-03-04T09:51:24.052Z,25.30
2023-03-04T09:54:07.013Z,25.70
2023-03-04T09:56:37.785Z,25.70
2023-03-04T09:59:18.492Z,25.90
2023-03-04T10:01:51.503Z,25.90
2023-03-04T10:04:27.456Z,25.40
2023-03-04T10:06:56.507Z,25.40
2023-03-04T10:09:29.072Z,25.30
2023-03-04T10:12:03.831Z,25.40
2023-03-04T10:14:38.549Z,25.30
2023-03-04T10:17:18.506Z,25.40
2023-03-04T10:20:02.425Z,25.40
2023-03-04T10:22:36.423Z,25.40
2023-03-04T10:25:17.809Z,25.40
2023-03-04T10:27:52.024Z,25.10
2023-03-04T10:30:33.989Z,25.10
2023-03-04T10:33:04.089Z,25.00
2023-03-04T10:35:37.550Z,24.70
2023-03-04T10:38:06.097Z,24.70
2023-03-04T10:40:40.512Z,24.80
2023-03-04T10:43:16.700Z,24.70
2023-03-04T10:45:46.360Z,24.30
2023-03-04T10:48:25.381Z,24.20
2023-03-04T10:50:53.948Z,24.00
2023-03-04T10:53:34.585Z,23.70
2023-03-04T10:56:03.230Z,23.80
2023-03-04T10:58:31.683Z,23.70
2023-03-04T11:01:06.005Z,24.00
2023-03-04T11:03:38.773Z,23.70
2023-03-04T11:06:12.162Z,23.80
2023-03-04T11:08:42.686Z,24.00
2023-03-04T11:11:34.483Z,23.90
2023-03-04T11:14:09.790Z,23.60
2023-03-04T11:16:38.314Z,23.30
2023-03-04T11:19:17.645Z,23.30
2023-03-04T11:21:47.619Z,23.20
2023-03-04T11:24:28.771Z,23.40
2023-03-04T11:27:04.764Z,23.60
2023-03-04T11:29:38.275Z,23.20
2023-03-04T11:32:12.377Z,23.30
2023-03-04T11:34:48.062Z,23.00
2023-03-04T11:37:24.193Z,22.80
2023-03-04T11:39:57.757Z,22.50
2023-03-04T11:42:34.170Z,22.60
2023-03-04T11:45:02.826Z,21.70
2023-03-04T11:47:49.162Z,21.90
2023-03-04T11:50:39.155Z,22.00
2023-03-04T11:53:29.405Z,21.80
2023-03-04T11:56:13.658Z,22.00
2023-03-04T11:59:20.708Z,22.30
2023-03-04T12:01:57.518Z,22.40
2023-03-04T12:04:49.434Z,22.50
2023-03-04T12:07:34.013Z,22.40
2023-03-04T12:10:16.366Z,23.00
2023-03-04T12:13:14.174Z,22.80
2023-03-04T12:15:51.394Z,23.00
2023-03-04T12:18:40.614Z,23.00
2023-03-04T12:21:20.996Z,22.90
2023-03-04T12:24:11.359Z,23.20
2023-03-04T12:26:44.707Z,23.10
2023-03-04T12:29:20.262Z,23.30
2023-03-04T12:31:58.170Z,23.50
2023-03-04T12:34:47.432Z,23.90
2023-03-04T12:37:38.053Z,23.60
2023-03-04T12:40:28.216Z,23.70
2023-03-04T12:43:12.757Z,23.70
2023-03-04T12:45:48.802Z,23.40
2023-03-04T12:48:28.926Z,23.50
2023-03-04T12:51:11.006Z,23.30
2023-03-04T12:53:47.267Z,22.90
2023-03-04T12:56:26.634Z,23.10
2023-03-04T12:58:56.094Z,23.10
2023-03-04T13:01:29.099Z,23.00
2023-03-04T13:04:03.865Z,23.00
2023-03-04T13:06:40.962Z,22.60
2023-03-04T13:09:17.713Z,22.90
2023-03-04T13:11:56.224Z,22.80
2023-03-04T13:14:36.154Z,22.70
2023-03-04T13:17:43.476Z,22.60
2023-03-04T13:20:34.902Z,22.70
2023-03-04T13:23:05.563Z,22.70
2023-03-04T13:25:36.927Z,22.50
2023-03-04T13:28:25.723Z,22.20
2023-03-04T13:31:26.964Z,22.10
2023-03-04T13:34:05.062Z,22.10
2023-03-04T13:36:56.071Z,22.00
2023-03-04T13:39:35.612Z,21.80
2023-03-04T13:42:06.076Z,22.30
2023-03-04T13:45:02.478Z,22.30
2023-03-04T13:47:45.104Z,22.50
2023-03-04T13:50:41.656Z,22.60
2023-03-04T13:53:41.109Z,22.90
2023-03-04T13:56:38.528Z,23.10
2023-03-04T13:59:30.810Z,22.90
2023-03-04T14:02:03.583Z,22.80
2023-03-04T14:04:34.861Z,22.80
2023-03-04T14:07:06.013Z,22.90
2023-03-04T14:09:36.242Z,23.00
2023-03-04T14:12:13.742Z,23.20
2023-03-04T14:14:50.052Z,23.30
2023-03-04T14:17:23.603Z,23.60
2023-03-04T14:19:54.011Z,23.60
2023-03-04T14:22:25.789Z,23.70
2023-03-04T14:24:58.693Z,23.90
2023-03-04T14:27:27.663Z,23.70
2023-03-04T14:29:59.931Z,23.70
2023-03-04T14:32:31.617Z,23.70
2023-03-04T14:35:03.446Z,23.20
2023-03-04T14:37:39.232Z,23.20
2023-03-04T14:40:08.859Z,23.30
2023-03-04T14:42:41.900Z,23.30
2023-03-04T14:45:15.791Z,23.60
2023-03-04T14:47:48.605Z,23.60
2023-03-04T14:50:18.722Z,23.50
2023-03-04T14:52:52.003Z,23.60
2023-03-04T14:55:24.147Z,23.60
2023-03-04T14:57:58.668Z,23.70
2023-03-04T15:00:30.861Z,23.70
2023-03-04T15:03:02.852Z,23.40
2023-03-04T15:05:33.792Z,23.20
2023-03-04T15:08:04.766Z,23.50
2023-03-04T15:10:35.333Z,23.60
2023-03-04T15:13:07.642Z,23.80
2023-03-04T15:15:42.176Z,23.90
2023-03-04T15:18:26.593Z,24.20
2023-03-04T15:21:00.969Z,24.20
2023-03-04T15:23:31.189Z,24.20
2023-03-04T15:26:02.113Z,24.30
2023-03-04T15:28:35.816Z,24.40
2023-03-04T15:31:04.746Z,24.50
2023-03-04T15:33:35.045Z,24.40
2023-03-04T15:36:04.771Z,24.50
2023-03-04T15:38:33.373Z,24.40
2023-03-04T15:41:02.107Z,24.80
2023-03-04T15:43:30.454Z,25.10
2023-03-04T15:45:58.870Z,25.60
2023-03-04T15:48:27.278Z,25.90
2023-03-04T15:51:00.383Z,26.70
2023-03-04T15:53:33.957Z,27.20
2023-03-04T15:56:03.808Z,27.70
2023-03-04T15:58:35.138Z,28.30
2023-03-04T16:01:04.036Z,28.80
2023-03-04T16:03:32.572Z,29.80
2023-03-04T16:06:02.410Z,30.30
2023-03-04T16:08:30.922Z,30.90
2023-03-04T16:10:59.444Z,31.50
2023-03-04T16:13:27.913Z,32.00
2023-03-04T16:15:56.374Z,32.60
2023-03-04T16:18:24.999Z,32.90
2023-03-04T16:20:53.753Z,33.10
2023-03-04T16:23:25.640Z,33.40
2023-03-04T16:25:56.970Z,33.40
2023-03-04T16:28:25.538Z,33.70
2023-03-04T16:30:54.049Z,33.70
2023-03-04T16:33:22.504Z,33.90
2023-03-04T16:35:52.058Z,34.10
2023-03-04T16:38:28.210Z,34.60
2023-03-04T16:40:58.324Z,34.80
2023-03-04T16:43:26.969Z,35.10
2023-03-04T16:45:55.702Z,35.10
2023-03-04T16:48:24.322Z,35.20
2023-03-04T16:50:52.732Z,35.40
2023-03-04T16:53:32.470Z,35.60
2023-03-04T16:56:05.818Z,35.40
2023-03-04T16:58:34.279Z,36.00
2023-03-04T17:01:03.191Z,36.50
2023-03-04T17:03:31.609Z,36.70
2023-03-04T17:06:00.216Z,37.10
2023-03-04T17:08:29.892Z,37.40
2023-03-04T17:10:58.367Z,37.60
2023-03-04T17:13:26.769Z,38.00
2023-03-04T17:15:55.277Z,38.40
2023-03-04T17:18:23.700Z,38.40
2023-03-04T17:20:51.982Z,38.60
2023-03-04T17:23:20.270Z,38.60
2023-03-04T17:25:56.701Z,38.70
2023-03-04T17:28:25.188Z,39.40
2023-03-04T17:30:53.571Z,39.30
2023-03-04T17:33:22.733Z,39.80
2023-03-04T17:35:51.369Z,40.30
2023-03-04T17:38:19.776Z,41.00
2023-03-04T17:40:48.154Z,40.90
2023-03-04T17:43:17.853Z,41.20
2023-03-04T17:45:46.272Z,41.30
2023-03-04T17:48:15.361Z,41.80
2023-03-04T17:50:50.764Z,42.00
2023-03-04T17:53:19.875Z,42.40
2023-03-04T17:55:51.754Z,42.50
2023-03-04T17:58:21.637Z,42.70
2023-03-04T18:00:52.951Z,42.90
2023-03-04T18:03:21.532Z,43.10
2023-03-04T18:05:49.815Z,43.10
2023-03-04T18:08:18.170Z,43.40
2023-03-04T18:10:46.609Z,43.50
2023-03-04T18:13:14.922Z,43.90
2023-03-04T18:15:44.685Z,44.10
2023-03-04T18:18:13.373Z,44.30
2023-03-04T18:20:41.927Z,44.60
2023-03-04T18:23:10.454Z,44.80
2023-03-04T18:25:38.877Z,44.90
2023-03-04T18:28:08.884Z,45.10
2023-03-04T18:30:37.309Z,45.20
2023-03-04T18:33:07.112Z,45.20
2023-03-04T18:35:35.464Z,45.40
2023-03-04T18:38:03.922Z,45.40
2023-03-04T18:40:32.395Z,45.30
2023-03-04T18:43:01.080Z,45.40
2023-03-04T18:45:29.727Z,45.40
2023-03-04T18:48:00.397Z,45.40
2023-03-04T18:50:30.070Z,45.30
2023-03-04T18:52:59.698Z,45.20
2023-03-04T18:55:28.448Z,45.40
2023-03-04T18:58:01.566Z,45.40
2023-03-04T19:00:30.629Z,45.60
2023-03-04T19:03:02.214Z,45.50
2023-03-04T19:05:33.761Z,45.90
2023-03-04T19:08:02.207Z,45.70
2023-03-04T19:10:30.885Z,46.10
2023-03-04T19:12:59.711Z,46.10
2023-03-04T19:15:28.478Z,46.20
2023-03-04T19:17:56.926Z,46.30
2023-03-04T19:20:25.367Z,46.30
2023-03-04T19:22:55.122Z,46.20
2023-03-04T19:25:23.617Z,46.30
2023-03-04T19:27:55.342Z,46.60
2023-03-04T19:30:24.152Z,46.80
2023-03-04T19:32:52.508Z,47.20
2023-03-04T19:35:20.922Z,47.30
2023-03-04T19:37:49.398Z,47.40
2023-03-04T19:40:19.313Z,47.40
2023-03-04T19:42:47.710Z,47.40
2023-03-04T19:45:16.201Z,47.60
2023-03-04T19:47:44.555Z,48.00
2023-03-04T19:50:14.241Z,48.10
2023-03-04T19:52:43.424Z,48.10
2023-03-04T19:55:13.763Z,48.30
2023-03-04T19:57:43.647Z,48.30
2023-03-04T20:00:13.903Z,48.40
2023-03-04T20:02:43.912Z,48.40
2023-03-04T20:05:12.541Z,48.50
2023-03-04T20:07:41.071Z,48.40
2023-03-04T20:10:10.762Z,48.40
2023-03-04T20:12:41.175Z,48.30
2023-03-04T20:15:11.573Z,48.30
2023-03-04T20:17:40.103Z,48.30
2023-03-04T20:20:10.782Z,48.30
2023-03-04T20:22:39.300Z,48.30
2023-03-04T20:25:08.086Z,48.20
2023-03-04T20:27:36.470Z,48.30
2023-03-04T20:30:05.216Z,48.50
2023-03-04T20:32:34.998Z,48.40
2023-03-04T20:35:03.524Z,48.60
2023-03-04T20:37:32.230Z,48.30
2023-03-04T20:40:00.579Z,48.10
2023-03-04T20:42:28.951Z,48.10
2023-03-04T20:44:57.270Z,48.10
2023-03-04T20:47:25.657Z,47.90
2023-03-04T20:49:55.450Z,48.00
2023-03-04T20:52:24.258Z,48.00
2023-03-04T20:54:52.692Z,48.00
2023-03-04T20:57:21.446Z,48.00
2023-03-04T20:59:49.835Z,48.10
2023-03-04T21:02:19.801Z,48.10
2023-03-04T21:04:48.261Z,48.20
2023-03-04T21:07:17.994Z,48.40
2023-03-04T21:09:46.442Z,48.40
2023-03-04T21:12:14.950Z,48.70
2023-03-04T21:14:45.242Z,48.80
2023-03-04T21:17:14.088Z,48.80
2023-03-04T21:19:44.431Z,48.80
2023-03-04T21:22:16.144Z,49.00
2023-03-04T21:24:47.924Z,49.10
2023-03-04T21:27:16.982Z,49.20
2023-03-04T21:29:45.970Z,49.40
2023-03-04T21:32:24.142Z,49.40
2023-03-04T21:34:54.230Z,49.70
2023-03-04T21:37:23.845Z,49.60
2023-03-04T21:39:54.330Z,49.70
2023-03-04T21:42:22.925Z,50.20
2023-03-04T21:44:52.071Z,49.60
2023-03-04T21:47:21.468Z,49.60
2023-03-04T21:49:49.898Z,49.70
2023-03-04T21:52:19.414Z,49.60
2023-03-04T21:54:48.847Z,49.60
2023-03-04T21:57:19.128Z,49.70
2023-03-04T21:59:47.591Z,49.60
2023-03-04T22:02:17.394Z,49.90
2023-03-04T22:04:45.894Z,49.80
2023-03-04T22:07:14.857Z,49.80
2023-03-04T22:09:43.222Z,49.80
2023-03-04T22:12:11.669Z,50.00
2023-03-04T22:14:41.412Z,51.30
2023-03-04T22:17:09.933Z,52.20
2023-03-04T22:19:38.447Z,51.50
2023-03-04T22:22:07.374Z,51.10
2023-03-04T22:24:35.793Z,50.80
2023-03-04T22:27:04.201Z,50.90
2023-03-04T22:29:32.700Z,50.80
2023-03-04T22:32:02.530Z,50.90
2023-03-04T22:34:30.996Z,51.10
2023-03-04T22:36:59.388Z,51.10
2023-03-04T22:39:28.158Z,51.20
2023-03-04T22:41:56.612Z,51.10
2023-03-04T22:44:25.106Z,51.00
2023-03-04T22:46:53.528Z,50.90
2023-03-04T22:49:23.205Z,50.90
2023-03-04T22:51:51.453Z,50.80
2023-03-04T22:54:20.247Z,51.00
2023-03-04T22:56:48.591Z,51.10
2023-03-04T22:59:16.872Z,51.30
2023-03-04T23:01:45.281Z,51.90
2023-03-04T23:04:13.656Z,51.90
2023-03-04T23:06:43.438Z,51.80
2023-03-04T23:09:11.878Z,52.30
2023-03-04T23:11:40.392Z,52.20
2023-03-04T23:14:11.639Z,51.90
2023-03-04T23:16:43.302Z,51.90
2023-03-04T23:19:14.309Z,52.10
2023-03-04T23:21:44.718Z,52.10
2023-03-04T23:24:14.331Z,52.10
2023-03-04T23:26:44.430Z,52.20
2023-03-04T23:29:16.230Z,52.20
2023-03-04T23:31:45.452Z,52.20
2023-03-04T23:34:14.141Z,52.40
2023-03-04T23:36:44.051Z,52.40
2023-03-04T23:39:13.418Z,52.40
2023-03-04T23:41:41.844Z,52.50
2023-03-04T23:44:11.541Z,52.40
2023-03-04T23:46:40.125Z,52.30
2023-03-04T23:49:10.172Z,52.40
2023-03-04T23:51:40.893Z,52.50
2023-03-04T23:54:10.860Z,52.50
2023-03-04T23:56:39.509Z,52.40
2023-03-04T23:59:08.776Z,52.30
